sensor_id;sensor_type;location;lat;lon;timestamp;P1;durP1;ratioP1;P2;durP2;ratioP2
6374;SDS011;35400;45.472;-122.822;2024-03-23T00:55:02;4.10;;;3.80;;
6374;SDS011;35400;45.472;-122.822;2024-03-23T00:57:28;4.33;;;3.70;;
6374;SDS011;35400;45.472;-122.822;2024-03-23T00:59:55;4.50;;;4.13;;
6374;SDS011;35400;45.472;-122.822;2024-03-23T01:02:22;4.33;;;3.87;;
6374;SDS011;35400;45.472;-122.822;2024-03-23T01:04:49;4.43;;;4.03;;
6374;SDS011;35400;45.472;-122.822;2024-03-23T01:07:16;4.13;;;3.70;;
6374;SDS011;35400;45.472;-122.822;2024-03-23T01:09:43;4.77;;;3.57;;
6374;SDS011;35400;45.472;-122.822;2024-03-23T01:12:10;3.70;;;3.40;;
6374;SDS011;35400;45.472;-122.822;2024-03-23T01:14:37;3.90;;;3.60;;
6374;SDS011;35400;45.472;-122.822;2024-03-23T01:17:04;3.63;;;3.30;;
6374;SDS011;35400;45.472;-122.822;2024-03-23T01:19:30;4.17;;;3.77;;
6374;SDS011;35400;45.472;-122.822;2024-03-23T01:21:57;3.43;;;3.20;;
6374;SDS011;35400;45.472;-122.822;2024-03-23T01:24:24;3.80;;;3.20;;
6374;SDS011;35400;45.472;-122.822;2024-03-23T01:26:51;2.87;;;2.63;;
6374;SDS011;35400;45.472;-122.822;2024-03-23T01:29:18;4.50;;;2.77;;
6374;SDS011;35400;45.472;-122.822;2024-03-23T01:31:44;3.33;;;3.03;;
6374;SDS011;35400;45.472;-122.822;2024-03-23T01:34:11;3.47;;;3.00;;
6374;SDS011;35400;45.472;-122.822;2024-03-23T01:36:38;3.97;;;3.07;;
6374;SDS011;35400;45.472;-122.822;2024-03-23T01:39:05;3.47;;;3.17;;
6374;SDS011;35400;45.472;-122.822;2024-03-23T01:41:35;4.27;;;3.40;;
6374;SDS011;35400;45.472;-122.822;2024-03-23T01:44:04;4.17;;;3.70;;
6374;SDS011;35400;45.472;-122.822;2024-03-23T01:46:37;3.73;;;3.43;;
6374;SDS011;35400;45.472;-122.822;2024-03-23T01:49:04;3.70;;;3.40;;
6374;SDS011;35400;45.472;-122.822;2024-03-23T01:51:31;4.93;;;3.87;;
6374;SDS011;35400;45.472;-122.822;2024-03-23T01:53:59;3.97;;;3.67;;
6374;SDS011;35400;45.472;-122.822;2024-03-23T01:56:31;4.03;;;3.73;;
6374;SDS011;35400;45.472;-122.822;2024-03-23T01:59:02;4.67;;;3.67;;
6374;SDS011;35400;45.472;-122.822;2024-03-23T02:01:31;5.17;;;4.10;;
6374;SDS011;35400;45.472;-122.822;2024-03-23T02:03:58;4.73;;;4.33;;
6374;SDS011;35400;45.472;-122.822;2024-03-23T02:06:25;4.27;;;3.87;;
6374;SDS011;35400;45.472;-122.822;2024-03-23T02:08:53;4.77;;;4.37;;
6374;SDS011;35400;45.472;-122.822;2024-03-23T02:11:23;4.30;;;3.90;;
6374;SDS011;35400;45.472;-122.822;2024-03-23T02:13:50;4.33;;;3.93;;
6374;SDS011;35400;45.472;-122.822;2024-03-23T02:16:17;6.00;;;5.40;;
6374;SDS011;35400;45.472;-122.822;2024-03-23T02:18:44;6.00;;;5.50;;
6374;SDS011;35400;45.472;-122.822;2024-03-23T02:21:11;7.30;;;5.93;;
6374;SDS011;35400;45.472;-122.822;2024-03-23T02:23:37;6.57;;;5.87;;
6374;SDS011;35400;45.472;-122.822;2024-03-23T02:26:04;6.67;;;6.03;;
6374;SDS011;35400;45.472;-122.822;2024-03-23T02:28:31;5.73;;;5.23;;
6374;SDS011;35400;45.472;-122.822;2024-03-23T02:30:58;6.43;;;5.37;;
6374;SDS011;35400;45.472;-122.822;2024-03-23T02:33:26;6.83;;;6.13;;
6374;SDS011;35400;45.472;-122.822;2024-03-23T02:35:55;6.90;;;6.20;;
6374;SDS011;35400;45.472;-122.822;2024-03-23T02:38:23;8.67;;;6.73;;
6374;SDS011;35400;45.472;-122.822;2024-03-23T02:40:50;6.57;;;5.93;;
6374;SDS011;35400;45.472;-122.822;2024-03-23T02:43:17;6.33;;;5.77;;
6374;SDS011;35400;45.472;-122.822;2024-03-23T02:45:43;7.43;;;5.80;;
6374;SDS011;35400;45.472;-122.822;2024-03-23T02:48:10;6.20;;;5.60;;
6374;SDS011;35400;45.472;-122.822;2024-03-23T02:50:37;6.57;;;5.27;;
6374;SDS011;35400;45.472;-122.822;2024-03-23T02:53:04;8.33;;;6.70;;
6374;SDS011;35400;45.472;-122.822;2024-03-23T02:55:31;6.43;;;5.83;;
6374;SDS011;35400;45.472;-122.822;2024-03-23T02:57:57;5.50;;;4.80;;
6374;SDS011;35400;45.472;-122.822;2024-03-23T03:00:28;6.67;;;4.67;;
6374;SDS011;35400;45.472;-122.822;2024-03-23T03:02:54;5.00;;;4.10;;
6374;SDS011;35400;45.472;-122.822;2024-03-23T03:05:21;4.30;;;3.90;;
6374;SDS011;35400;45.472;-122.822;2024-03-23T03:07:48;4.20;;;3.80;;
6374;SDS011;35400;45.472;-122.822;2024-03-23T03:10:15;4.17;;;3.77;;
6374;SDS011;35400;45.472;-122.822;2024-03-23T03:12:42;4.30;;;3.80;;
6374;SDS011;35400;45.472;-122.822;2024-03-23T03:15:09;4.73;;;4.03;;
6374;SDS011;35400;45.472;-122.822;2024-03-23T03:17:36;4.10;;;3.70;;
6374;SDS011;35400;45.472;-122.822;2024-03-23T03:20:03;4.20;;;3.80;;
6374;SDS011;35400;45.472;-122.822;2024-03-23T03:22:30;4.70;;;4.03;;
6374;SDS011;35400;45.472;-122.822;2024-03-23T03:24:57;3.70;;;3.40;;
6374;SDS011;35400;45.472;-122.822;2024-03-23T03:27:25;3.27;;;3.03;;
6374;SDS011;35400;45.472;-122.822;2024-03-23T03:29:52;3.90;;;3.53;;
6374;SDS011;35400;45.472;-122.822;2024-03-23T03:32:19;3.97;;;3.33;;
6374;SDS011;35400;45.472;-122.822;2024-03-23T03:34:46;4.90;;;4.00;;
6374;SDS011;35400;45.472;-122.822;2024-03-23T03:37:13;3.37;;;3.07;;
6374;SDS011;35400;45.472;-122.822;2024-03-23T03:39:40;4.30;;;3.90;;
6374;SDS011;35400;45.472;-122.822;2024-03-23T03:42:07;3.90;;;3.50;;
6374;SDS011;35400;45.472;-122.822;2024-03-23T03:44:34;5.30;;;3.97;;
6374;SDS011;35400;45.472;-122.822;2024-03-23T03:47:02;4.33;;;3.43;;
6374;SDS011;35400;45.472;-122.822;2024-03-23T03:49:29;4.40;;;4.00;;
6374;SDS011;35400;45.472;-122.822;2024-03-23T03:51:56;9.07;;;6.47;;
6374;SDS011;35400;45.472;-122.822;2024-03-23T03:54:22;7.73;;;6.17;;
6374;SDS011;35400;45.472;-122.822;2024-03-23T03:56:49;7.97;;;5.70;;
6374;SDS011;35400;45.472;-122.822;2024-03-23T03:59:17;8.07;;;6.50;;
6374;SDS011;35400;45.472;-122.822;2024-03-23T04:01:44;7.70;;;5.87;;
6374;SDS011;35400;45.472;-122.822;2024-03-23T04:04:10;7.90;;;5.20;;
6374;SDS011;35400;45.472;-122.822;2024-03-23T04:06:37;6.63;;;4.70;;
6374;SDS011;35400;45.472;-122.822;2024-03-23T04:09:04;6.00;;;4.57;;
6374;SDS011;35400;45.472;-122.822;2024-03-23T04:11:32;5.03;;;4.10;;
6374;SDS011;35400;45.472;-122.822;2024-03-23T04:13:59;4.50;;;4.10;;
6374;SDS011;35400;45.472;-122.822;2024-03-23T04:16:29;5.47;;;4.47;;
6374;SDS011;35400;45.472;-122.822;2024-03-23T04:19:01;5.97;;;4.57;;
6374;SDS011;35400;45.472;-122.822;2024-03-23T04:21:27;5.30;;;4.70;;
6374;SDS011;35400;45.472;-122.822;2024-03-23T04:23:54;5.70;;;5.00;;
6374;SDS011;35400;45.472;-122.822;2024-03-23T04:26:21;5.20;;;4.43;;
6374;SDS011;35400;45.472;-122.822;2024-03-23T04:28:48;7.73;;;5.73;;
6374;SDS011;35400;45.472;-122.822;2024-03-23T04:31:15;6.53;;;5.40;;
6374;SDS011;35400;45.472;-122.822;2024-03-23T04:33:42;6.13;;;5.50;;
6374;SDS011;35400;45.472;-122.822;2024-03-23T04:36:08;7.83;;;5.57;;
6374;SDS011;35400;45.472;-122.822;2024-03-23T04:38:35;6.17;;;4.67;;
6374;SDS011;35400;45.472;-122.822;2024-03-23T04:41:02;6.67;;;5.23;;
6374;SDS011;35400;45.472;-122.822;2024-03-23T04:43:30;5.30;;;4.53;;
6374;SDS011;35400;45.472;-122.822;2024-03-23T04:45:57;4.67;;;4.27;;
6374;SDS011;35400;45.472;-122.822;2024-03-23T04:48:24;5.03;;;3.90;;
6374;SDS011;35400;45.472;-122.822;2024-03-23T04:50:55;4.57;;;4.10;;
6374;SDS011;35400;45.472;-122.822;2024-03-23T04:53:23;5.00;;;4.50;;
6374;SDS011;35400;45.472;-122.822;2024-03-23T04:55:57;6.00;;;3.93;;
6374;SDS011;35400;45.472;-122.822;2024-03-23T04:58:28;4.10;;;3.80;;
6374;SDS011;35400;45.472;-122.822;2024-03-23T05:00:55;3.87;;;3.57;;
6374;SDS011;35400;45.472;-122.822;2024-03-23T05:03:23;5.20;;;4.33;;
6374;SDS011;35400;45.472;-122.822;2024-03-23T05:05:49;4.40;;;3.97;;
6374;SDS011;35400;45.472;-122.822;2024-03-23T05:08:16;6.03;;;4.80;;
6374;SDS011;35400;45.472;-122.822;2024-03-23T05:10:43;5.30;;;4.70;;
6374;SDS011;35400;45.472;-122.822;2024-03-23T05:13:10;5.77;;;4.83;;
6374;SDS011;35400;45.472;-122.822;2024-03-23T05:15:37;5.57;;;4.30;;
6374;SDS011;35400;45.472;-122.822;2024-03-23T05:18:04;5.03;;;4.53;;
6374;SDS011;35400;45.472;-122.822;2024-03-23T05:20:32;5.10;;;4.53;;
6374;SDS011;35400;45.472;-122.822;2024-03-23T05:22:59;6.47;;;4.73;;
6374;SDS011;35400;45.472;-122.822;2024-03-23T05:25:25;5.60;;;5.00;;
6374;SDS011;35400;45.472;-122.822;2024-03-23T05:27:52;6.13;;;5.20;;
6374;SDS011;35400;45.472;-122.822;2024-03-23T05:30:19;5.50;;;4.80;;
6374;SDS011;35400;45.472;-122.822;2024-03-23T05:32:46;5.47;;;4.70;;
6374;SDS011;35400;45.472;-122.822;2024-03-23T05:35:13;5.80;;;5.20;;
6374;SDS011;35400;45.472;-122.822;2024-03-23T05:37:40;5.23;;;4.73;;
6374;SDS011;35400;45.472;-122.822;2024-03-23T05:40:07;6.20;;;5.47;;
6374;SDS011;35400;45.472;-122.822;2024-03-23T05:42:35;6.37;;;5.20;;
6374;SDS011;35400;45.472;-122.822;2024-03-23T05:45:02;6.10;;;5.40;;
6374;SDS011;35400;45.472;-122.822;2024-03-23T05:47:32;6.97;;;6.17;;
6374;SDS011;35400;45.472;-122.822;2024-03-23T05:49:59;6.37;;;5.20;;
6374;SDS011;35400;45.472;-122.822;2024-03-23T05:52:27;6.70;;;5.87;;
6374;SDS011;35400;45.472;-122.822;2024-03-23T05:54:54;7.50;;;6.43;;
6374;SDS011;35400;45.472;-122.822;2024-03-23T05:57:21;6.83;;;6.13;;
6374;SDS011;35400;45.472;-122.822;2024-03-23T05:59:48;6.90;;;6.20;;
6374;SDS011;35400;45.472;-122.822;2024-03-23T06:02:15;7.67;;;6.03;;
6374;SDS011;35400;45.472;-122.822;2024-03-23T06:04:42;6.53;;;5.63;;
6374;SDS011;35400;45.472;-122.822;2024-03-23T06:07:11;8.90;;;7.27;;
6374;SDS011;35400;45.472;-122.822;2024-03-23T06:09:40;7.70;;;6.87;;
6374;SDS011;35400;45.472;-122.822;2024-03-23T06:12:07;6.80;;;5.87;;
6374;SDS011;35400;45.472;-122.822;2024-03-23T06:14:34;8.97;;;6.70;;
6374;SDS011;35400;45.472;-122.822;2024-03-23T06:17:01;9.70;;;7.33;;
6374;SDS011;35400;45.472;-122.822;2024-03-23T06:19:28;8.47;;;7.63;;
6374;SDS011;35400;45.472;-122.822;2024-03-23T06:21:55;7.37;;;6.63;;
6374;SDS011;35400;45.472;-122.822;2024-03-23T06:24:22;8.57;;;7.77;;
6374;SDS011;35400;45.472;-122.822;2024-03-23T06:26:50;8.20;;;6.87;;
6374;SDS011;35400;45.472;-122.822;2024-03-23T06:29:17;7.67;;;6.90;;
6374;SDS011;35400;45.472;-122.822;2024-03-23T06:31:43;7.70;;;6.90;;
6374;SDS011;35400;45.472;-122.822;2024-03-23T06:34:18;7.33;;;5.97;;
6374;SDS011;35400;45.472;-122.822;2024-03-23T06:36:44;6.80;;;6.10;;
6374;SDS011;35400;45.472;-122.822;2024-03-23T06:39:13;6.80;;;6.00;;
6374;SDS011;35400;45.472;-122.822;2024-03-23T06:41:41;7.73;;;6.13;;
6374;SDS011;35400;45.472;-122.822;2024-03-23T06:44:09;6.30;;;5.70;;
6374;SDS011;35400;45.472;-122.822;2024-03-23T06:46:35;7.20;;;6.00;;
6374;SDS011;35400;45.472;-122.822;2024-03-23T06:49:02;7.67;;;6.87;;
6374;SDS011;35400;45.472;-122.822;2024-03-23T06:51:29;7.70;;;6.10;;
6374;SDS011;35400;45.472;-122.822;2024-03-23T06:53:56;8.07;;;6.43;;
6374;SDS011;35400;45.472;-122.822;2024-03-23T06:56:23;7.53;;;6.30;;
6374;SDS011;35400;45.472;-122.822;2024-03-23T06:58:50;7.57;;;6.40;;
6374;SDS011;35400;45.472;-122.822;2024-03-23T07:01:16;7.40;;;5.80;;
6374;SDS011;35400;45.472;-122.822;2024-03-23T07:03:43;6.10;;;5.60;;
6374;SDS011;35400;45.472;-122.822;2024-03-23T07:06:10;7.40;;;6.60;;
6374;SDS011;35400;45.472;-122.822;2024-03-23T07:08:37;7.63;;;6.07;;
6374;SDS011;35400;45.472;-122.822;2024-03-23T07:11:04;6.87;;;5.97;;
6374;SDS011;35400;45.472;-122.822;2024-03-23T07:13:31;7.20;;;6.17;;
6374;SDS011;35400;45.472;-122.822;2024-03-23T07:15:58;6.67;;;5.97;;
6374;SDS011;35400;45.472;-122.822;2024-03-23T07:18:25;7.90;;;6.40;;
6374;SDS011;35400;45.472;-122.822;2024-03-23T07:20:55;10.33;;;6.70;;
6374;SDS011;35400;45.472;-122.822;2024-03-23T07:23:23;7.33;;;6.63;;
6374;SDS011;35400;45.472;-122.822;2024-03-23T07:26:00;10.37;;;7.00;;
6374;SDS011;35400;45.472;-122.822;2024-03-23T07:28:28;9.80;;;7.37;;
6374;SDS011;35400;45.472;-122.822;2024-03-23T07:31:08;11.40;;;7.67;;
6374;SDS011;35400;45.472;-122.822;2024-03-23T07:33:46;9.53;;;7.30;;
6374;SDS011;35400;45.472;-122.822;2024-03-23T07:36:14;12.03;;;7.57;;
6374;SDS011;35400;45.472;-122.822;2024-03-23T07:38:41;10.17;;;7.33;;
6374;SDS011;35400;45.472;-122.822;2024-03-23T07:41:11;10.17;;;8.20;;
6374;SDS011;35400;45.472;-122.822;2024-03-23T07:43:43;14.07;;;9.50;;
6374;SDS011;35400;45.472;-122.822;2024-03-23T07:46:10;15.53;;;11.70;;
6374;SDS011;35400;45.472;-122.822;2024-03-23T07:48:38;22.90;;;14.67;;
6374;SDS011;35400;45.472;-122.822;2024-03-23T07:51:09;15.73;;;11.50;;
6374;SDS011;35400;45.472;-122.822;2024-03-23T07:53:37;13.87;;;10.77;;
6374;SDS011;35400;45.472;-122.822;2024-03-23T07:56:07;11.20;;;9.60;;
6374;SDS011;35400;45.472;-122.822;2024-03-23T07:58:38;8.83;;;7.93;;
6374;SDS011;35400;45.472;-122.822;2024-03-23T08:03:34;10.10;;;8.67;;
6374;SDS011;35400;45.472;-122.822;2024-03-23T08:06:14;8.20;;;7.27;;
6374;SDS011;35400;45.472;-122.822;2024-03-23T08:08:44;7.63;;;6.83;;
6374;SDS011;35400;45.472;-122.822;2024-03-23T08:11:11;7.53;;;6.73;;
6374;SDS011;35400;45.472;-122.822;2024-03-23T08:13:39;8.73;;;7.23;;
6374;SDS011;35400;45.472;-122.822;2024-03-23T08:16:06;9.37;;;8.13;;
6374;SDS011;35400;45.472;-122.822;2024-03-23T08:18:37;8.07;;;7.27;;
6374;SDS011;35400;45.472;-122.822;2024-03-23T08:21:06;8.10;;;7.10;;
6374;SDS011;35400;45.472;-122.822;2024-03-23T08:23:33;8.67;;;7.17;;
6374;SDS011;35400;45.472;-122.822;2024-03-23T08:26:07;8.23;;;7.43;;
6374;SDS011;35400;45.472;-122.822;2024-03-23T08:28:39;8.13;;;7.33;;
6374;SDS011;35400;45.472;-122.822;2024-03-23T08:31:09;9.07;;;7.63;;
6374;SDS011;35400;45.472;-122.822;2024-03-23T08:33:38;8.20;;;6.73;;
6374;SDS011;35400;45.472;-122.822;2024-03-23T08:36:06;8.07;;;7.00;;
6374;SDS011;35400;45.472;-122.822;2024-03-23T08:38:35;7.93;;;7.07;;
6374;SDS011;35400;45.472;-122.822;2024-03-23T08:41:02;7.90;;;7.20;;
6374;SDS011;35400;45.472;-122.822;2024-03-23T08:43:35;8.23;;;6.77;;
6374;SDS011;35400;45.472;-122.822;2024-03-23T08:46:12;8.97;;;7.40;;
6374;SDS011;35400;45.472;-122.822;2024-03-23T08:48:41;7.33;;;6.63;;
6374;SDS011;35400;45.472;-122.822;2024-03-23T08:51:13;8.10;;;6.60;;
6374;SDS011;35400;45.472;-122.822;2024-03-23T08:53:40;7.50;;;6.70;;
6374;SDS011;35400;45.472;-122.822;2024-03-23T08:56:08;7.73;;;6.37;;
6374;SDS011;35400;45.472;-122.822;2024-03-23T08:58:36;7.70;;;6.37;;
6374;SDS011;35400;45.472;-122.822;2024-03-23T09:01:05;7.40;;;6.70;;
6374;SDS011;35400;45.472;-122.822;2024-03-23T09:03:36;7.13;;;6.43;;
6374;SDS011;35400;45.472;-122.822;2024-03-23T09:06:07;7.30;;;6.60;;
6374;SDS011;35400;45.472;-122.822;2024-03-23T09:08:35;8.30;;;7.40;;
6374;SDS011;35400;45.472;-122.822;2024-03-23T09:11:05;8.13;;;7.33;;
6374;SDS011;35400;45.472;-122.822;2024-03-23T09:13:33;8.80;;;7.33;;
6374;SDS011;35400;45.472;-122.822;2024-03-23T09:16:01;8.47;;;7.00;;
6374;SDS011;35400;45.472;-122.822;2024-03-23T09:18:31;8.07;;;6.20;;
6374;SDS011;35400;45.472;-122.822;2024-03-23T09:20:59;7.47;;;6.60;;
6374;SDS011;35400;45.472;-122.822;2024-03-23T09:23:26;7.17;;;6.40;;
6374;SDS011;35400;45.472;-122.822;2024-03-23T09:25:52;9.00;;;7.03;;
6374;SDS011;35400;45.472;-122.822;2024-03-23T09:28:19;7.17;;;6.33;;
6374;SDS011;35400;45.472;-122.822;2024-03-23T09:30:46;7.20;;;6.50;;
6374;SDS011;35400;45.472;-122.822;2024-03-23T09:33:13;6.50;;;5.70;;
6374;SDS011;35400;45.472;-122.822;2024-03-23T09:35:40;7.17;;;6.47;;
6374;SDS011;35400;45.472;-122.822;2024-03-23T09:38:08;7.33;;;6.53;;
6374;SDS011;35400;45.472;-122.822;2024-03-23T09:40:44;8.13;;;6.73;;
6374;SDS011;35400;45.472;-122.822;2024-03-23T09:43:11;9.70;;;7.73;;
6374;SDS011;35400;45.472;-122.822;2024-03-23T09:45:39;8.00;;;6.83;;
6374;SDS011;35400;45.472;-122.822;2024-03-23T09:48:07;8.50;;;7.33;;
6374;SDS011;35400;45.472;-122.822;2024-03-23T09:50:41;8.57;;;7.73;;
6374;SDS011;35400;45.472;-122.822;2024-03-23T09:53:11;7.40;;;6.70;;
6374;SDS011;35400;45.472;-122.822;2024-03-23T09:55:39;7.70;;;6.47;;
6374;SDS011;35400;45.472;-122.822;2024-03-23T09:58:08;7.27;;;6.50;;
6374;SDS011;35400;45.472;-122.822;2024-03-23T10:00:38;6.57;;;5.97;;
6374;SDS011;35400;45.472;-122.822;2024-03-23T10:03:05;6.80;;;6.10;;
6374;SDS011;35400;45.472;-122.822;2024-03-23T10:05:32;7.60;;;6.93;;
6374;SDS011;35400;45.472;-122.822;2024-03-23T10:10:41;6.70;;;6.10;;
6374;SDS011;35400;45.472;-122.822;2024-03-23T10:13:08;7.17;;;6.47;;
6374;SDS011;35400;45.472;-122.822;2024-03-23T10:15:36;6.63;;;6.03;;
6374;SDS011;35400;45.472;-122.822;2024-03-23T10:18:19;5.90;;;5.30;;
6374;SDS011;35400;45.472;-122.822;2024-03-23T10:21:31;6.93;;;6.27;;
6374;SDS011;35400;45.472;-122.822;2024-03-23T10:23:38;7.37;;;6.00;;
6374;SDS011;35400;45.472;-122.822;2024-03-23T10:28:52;6.73;;;6.07;;
6374;SDS011;35400;45.472;-122.822;2024-03-23T10:31:34;6.80;;;6.10;;
6374;SDS011;35400;45.472;-122.822;2024-03-23T10:34:02;6.33;;;5.53;;
6374;SDS011;35400;45.472;-122.822;2024-03-23T10:36:30;6.93;;;5.83;;
6374;SDS011;35400;45.472;-122.822;2024-03-23T10:38:56;6.63;;;5.60;;
6374;SDS011;35400;45.472;-122.822;2024-03-23T10:41:28;6.90;;;5.60;;
6374;SDS011;35400;45.472;-122.822;2024-03-23T10:43:57;6.20;;;5.60;;
6374;SDS011;35400;45.472;-122.822;2024-03-23T10:46:27;5.70;;;5.20;;
6374;SDS011;35400;45.472;-122.822;2024-03-23T10:48:54;5.70;;;5.20;;
6374;SDS011;35400;45.472;-122.822;2024-03-23T10:51:21;6.03;;;5.43;;
6374;SDS011;35400;45.472;-122.822;2024-03-23T10:53:48;6.33;;;5.20;;
6374;SDS011;35400;45.472;-122.822;2024-03-23T10:56:15;6.40;;;5.00;;
6374;SDS011;35400;45.472;-122.822;2024-03-23T10:58:45;5.87;;;5.27;;
6374;SDS011;35400;45.472;-122.822;2024-03-23T11:01:15;6.40;;;5.47;;
6374;SDS011;35400;45.472;-122.822;2024-03-23T11:03:45;5.67;;;5.07;;
6374;SDS011;35400;45.472;-122.822;2024-03-23T11:09:01;5.33;;;4.80;;
6374;SDS011;35400;45.472;-122.822;2024-03-23T11:11:28;5.30;;;4.80;;
6374;SDS011;35400;45.472;-122.822;2024-03-23T11:13:57;5.70;;;5.07;;
6374;SDS011;35400;45.472;-122.822;2024-03-23T11:16:26;5.40;;;4.87;;
6374;SDS011;35400;45.472;-122.822;2024-03-23T11:22:03;5.80;;;4.80;;
6374;SDS011;35400;45.472;-122.822;2024-03-23T11:24:31;6.50;;;5.37;;
6374;SDS011;35400;45.472;-122.822;2024-03-23T11:26:58;5.23;;;4.73;;
6374;SDS011;35400;45.472;-122.822;2024-03-23T11:29:29;5.67;;;5.17;;
6374;SDS011;35400;45.472;-122.822;2024-03-23T11:31:56;5.10;;;4.60;;
6374;SDS011;35400;45.472;-122.822;2024-03-23T11:34:24;5.50;;;4.77;;
6374;SDS011;35400;45.472;-122.822;2024-03-23T11:36:51;4.93;;;4.53;;
6374;SDS011;35400;45.472;-122.822;2024-03-23T11:39:30;6.33;;;5.67;;
6374;SDS011;35400;45.472;-122.822;2024-03-23T11:41:58;5.90;;;4.67;;
6374;SDS011;35400;45.472;-122.822;2024-03-23T11:44:26;5.10;;;4.53;;
6374;SDS011;35400;45.472;-122.822;2024-03-23T11:46:53;5.67;;;4.70;;
6374;SDS011;35400;45.472;-122.822;2024-03-23T11:49:33;5.07;;;4.53;;
6374;SDS011;35400;45.472;-122.822;2024-03-23T11:52:07;5.13;;;4.63;;
6374;SDS011;35400;45.472;-122.822;2024-03-23T11:54:33;5.63;;;5.07;;
6374;SDS011;35400;45.472;-122.822;2024-03-23T11:57:01;5.80;;;5.20;;
6374;SDS011;35400;45.472;-122.822;2024-03-23T11:59:35;5.10;;;4.60;;
6374;SDS011;35400;45.472;-122.822;2024-03-23T12:02:10;5.90;;;5.17;;
6374;SDS011;35400;45.472;-122.822;2024-03-23T12:04:39;6.33;;;5.73;;
6374;SDS011;35400;45.472;-122.822;2024-03-23T12:07:13;6.00;;;5.13;;
6374;SDS011;35400;45.472;-122.822;2024-03-23T12:09:45;7.27;;;5.10;;
6374;SDS011;35400;45.472;-122.822;2024-03-23T12:12:16;4.80;;;4.40;;
6374;SDS011;35400;45.472;-122.822;2024-03-23T12:14:44;5.20;;;4.70;;
6374;SDS011;35400;45.472;-122.822;2024-03-23T12:17:12;5.63;;;4.97;;
6374;SDS011;35400;45.472;-122.822;2024-03-23T12:19:40;6.00;;;5.23;;
6374;SDS011;35400;45.472;-122.822;2024-03-23T12:22:08;6.97;;;6.27;;
6374;SDS011;35400;45.472;-122.822;2024-03-23T12:24:35;8.43;;;7.10;;
6374;SDS011;35400;45.472;-122.822;2024-03-23T12:27:05;8.90;;;6.97;;
6374;SDS011;35400;45.472;-122.822;2024-03-23T12:29:32;8.87;;;6.93;;
6374;SDS011;35400;45.472;-122.822;2024-03-23T12:31:59;7.20;;;5.80;;
6374;SDS011;35400;45.472;-122.822;2024-03-23T12:34:27;7.73;;;6.80;;
6374;SDS011;35400;45.472;-122.822;2024-03-23T12:36:56;9.87;;;7.30;;
6374;SDS011;35400;45.472;-122.822;2024-03-23T12:39:23;8.67;;;7.17;;
6374;SDS011;35400;45.472;-122.822;2024-03-23T12:41:50;8.03;;;6.73;;
6374;SDS011;35400;45.472;-122.822;2024-03-23T12:44:18;7.93;;;6.97;;
6374;SDS011;35400;45.472;-122.822;2024-03-23T12:46:45;9.13;;;7.30;;
6374;SDS011;35400;45.472;-122.822;2024-03-23T12:49:12;8.03;;;7.23;;
6374;SDS011;35400;45.472;-122.822;2024-03-23T12:51:39;9.20;;;7.67;;
6374;SDS011;35400;45.472;-122.822;2024-03-23T12:54:12;9.97;;;7.70;;
6374;SDS011;35400;45.472;-122.822;2024-03-23T12:56:39;10.87;;;8.30;;
6374;SDS011;35400;45.472;-122.822;2024-03-23T12:59:05;11.40;;;8.17;;
6374;SDS011;35400;45.472;-122.822;2024-03-23T13:01:32;10.23;;;8.63;;
6374;SDS011;35400;45.472;-122.822;2024-03-23T13:03:59;11.27;;;8.53;;
6374;SDS011;35400;45.472;-122.822;2024-03-23T13:06:27;9.07;;;8.00;;
6374;SDS011;35400;45.472;-122.822;2024-03-23T13:09:00;10.73;;;8.13;;
6374;SDS011;35400;45.472;-122.822;2024-03-23T13:11:28;11.17;;;8.87;;
6374;SDS011;35400;45.472;-122.822;2024-03-23T13:13:56;9.37;;;8.33;;
6374;SDS011;35400;45.472;-122.822;2024-03-23T13:16:22;9.03;;;7.43;;
6374;SDS011;35400;45.472;-122.822;2024-03-23T13:18:49;13.77;;;9.07;;
6374;SDS011;35400;45.472;-122.822;2024-03-23T13:21:17;11.23;;;8.30;;
6374;SDS011;35400;45.472;-122.822;2024-03-23T13:23:46;8.90;;;7.47;;
6374;SDS011;35400;45.472;-122.822;2024-03-23T13:26:14;8.93;;;7.73;;
6374;SDS011;35400;45.472;-122.822;2024-03-23T13:28:41;9.93;;;7.90;;
6374;SDS011;35400;45.472;-122.822;2024-03-23T13:31:07;10.63;;;8.30;;
6374;SDS011;35400;45.472;-122.822;2024-03-23T13:33:34;11.23;;;8.67;;
6374;SDS011;35400;45.472;-122.822;2024-03-23T13:36:01;7.50;;;6.80;;
6374;SDS011;35400;45.472;-122.822;2024-03-23T13:38:29;7.10;;;6.30;;
6374;SDS011;35400;45.472;-122.822;2024-03-23T13:40:56;8.60;;;7.20;;
6374;SDS011;35400;45.472;-122.822;2024-03-23T13:43:24;7.63;;;6.93;;
6374;SDS011;35400;45.472;-122.822;2024-03-23T13:45:53;7.30;;;6.60;;
6374;SDS011;35400;45.472;-122.822;2024-03-23T13:48:22;9.20;;;7.43;;
6374;SDS011;35400;45.472;-122.822;2024-03-23T13:51:02;7.47;;;6.80;;
6374;SDS011;35400;45.472;-122.822;2024-03-23T13:53:31;8.90;;;6.37;;
6374;SDS011;35400;45.472;-122.822;2024-03-23T13:56:01;7.33;;;6.63;;
6374;SDS011;35400;45.472;-122.822;2024-03-23T13:58:28;9.33;;;7.03;;
6374;SDS011;35400;45.472;-122.822;2024-03-23T14:00:58;7.63;;;6.90;;
6374;SDS011;35400;45.472;-122.822;2024-03-23T14:03:25;9.73;;;7.43;;
6374;SDS011;35400;45.472;-122.822;2024-03-23T14:05:57;7.17;;;6.37;;
6374;SDS011;35400;45.472;-122.822;2024-03-23T14:08:27;8.10;;;7.30;;
6374;SDS011;35400;45.472;-122.822;2024-03-23T14:10:54;9.33;;;6.60;;
6374;SDS011;35400;45.472;-122.822;2024-03-23T14:13:21;6.97;;;6.17;;
6374;SDS011;35400;45.472;-122.822;2024-03-23T14:15:52;7.33;;;6.63;;
6374;SDS011;35400;45.472;-122.822;2024-03-23T14:18:19;7.40;;;6.70;;
6374;SDS011;35400;45.472;-122.822;2024-03-23T14:20:48;7.47;;;6.73;;
6374;SDS011;35400;45.472;-122.822;2024-03-23T14:23:16;7.43;;;6.27;;
6374;SDS011;35400;45.472;-122.822;2024-03-23T14:25:43;7.33;;;6.40;;
6374;SDS011;35400;45.472;-122.822;2024-03-23T14:28:10;7.47;;;6.07;;
6374;SDS011;35400;45.472;-122.822;2024-03-23T14:30:41;6.57;;;5.97;;
6374;SDS011;35400;45.472;-122.822;2024-03-23T14:33:08;7.23;;;6.37;;
6374;SDS011;35400;45.472;-122.822;2024-03-23T14:35:35;6.67;;;6.00;;
6374;SDS011;35400;45.472;-122.822;2024-03-23T14:38:02;6.73;;;5.90;;
6374;SDS011;35400;45.472;-122.822;2024-03-23T14:40:29;7.07;;;6.13;;
6374;SDS011;35400;45.472;-122.822;2024-03-23T14:42:56;8.70;;;7.27;;
6374;SDS011;35400;45.472;-122.822;2024-03-23T14:45:22;9.07;;;7.93;;
6374;SDS011;35400;45.472;-122.822;2024-03-23T14:47:50;8.57;;;7.27;;
6374;SDS011;35400;45.472;-122.822;2024-03-23T14:50:17;9.23;;;7.80;;
6374;SDS011;35400;45.472;-122.822;2024-03-23T14:52:47;8.83;;;7.93;;
6374;SDS011;35400;45.472;-122.822;2024-03-23T14:55:14;9.10;;;7.87;;
6374;SDS011;35400;45.472;-122.822;2024-03-23T14:57:41;7.77;;;6.93;;
6374;SDS011;35400;45.472;-122.822;2024-03-23T15:00:08;11.43;;;9.10;;
6374;SDS011;35400;45.472;-122.822;2024-03-23T15:02:39;9.33;;;8.37;;
6374;SDS011;35400;45.472;-122.822;2024-03-23T15:05:06;8.97;;;8.07;;
6374;SDS011;35400;45.472;-122.822;2024-03-23T15:07:36;8.53;;;7.10;;
6374;SDS011;35400;45.472;-122.822;2024-03-23T15:10:05;8.10;;;6.97;;
6374;SDS011;35400;45.472;-122.822;2024-03-23T15:12:33;10.87;;;7.80;;
6374;SDS011;35400;45.472;-122.822;2024-03-23T15:15:00;15.43;;;8.97;;
6374;SDS011;35400;45.472;-122.822;2024-03-23T15:17:27;10.07;;;5.90;;
6374;SDS011;35400;45.472;-122.822;2024-03-23T15:19:55;4.40;;;4.00;;
6374;SDS011;35400;45.472;-122.822;2024-03-23T15:22:22;5.47;;;3.13;;
6374;SDS011;35400;45.472;-122.822;2024-03-23T15:24:49;4.37;;;3.23;;
6374;SDS011;35400;45.472;-122.822;2024-03-23T15:27:15;3.10;;;2.73;;
6374;SDS011;35400;45.472;-122.822;2024-03-23T15:29:42;3.50;;;3.20;;
6374;SDS011;35400;45.472;-122.822;2024-03-23T15:32:11;3.10;;;2.80;;
6374;SDS011;35400;45.472;-122.822;2024-03-23T15:34:39;2.00;;;1.70;;